createdAt,value
2023-03-10T00:01:29.124Z,2.80
2023-03-10T00:03:57.863Z,3.83
2023-03-10T00:06:27.083Z,5.03
2023-03-10T00:08:55.465Z,2.80
2023-03-10T00:11:23.550Z,4.53
2023-03-10T00:13:50.714Z,3.50
2023-03-10T00:16:24.676Z,3.60
2023-03-10T00:18:52.576Z,3.53
2023-03-10T00:21:26.373Z,3.77
2023-03-10T00:23:54.473Z,3.90
2023-03-10T00:26:23.180Z,2.97
2023-03-10T00:28:51.099Z,3.60
2023-03-10T00:31:21.366Z,4.47
2023-03-10T00:33:49.835Z,2.77
2023-03-10T00:36:22.582Z,3.87
2023-03-10T00:38:51.339Z,3.53
2023-03-10T00:41:21.050Z,5.23
2023-03-10T00:43:48.510Z,3.83
2023-03-10T00:46:16.844Z,2.90
2023-03-10T00:48:44.603Z,3.73
2023-03-10T00:51:12.025Z,5.20
2023-03-10T00:53:40.979Z,6.00
2023-03-10T00:56:14.106Z,3.97
2023-03-10T00:58:42.243Z,4.00
2023-03-10T01:01:20.020Z,2.87
2023-03-10T01:03:47.609Z,2.00
2023-03-10T01:06:57.125Z,3.80
2023-03-10T01:09:24.305Z,2.50
2023-03-10T01:11:51.911Z,3.50
2023-03-10T01:14:19.849Z,4.60
2023-03-10T01:16:47.312Z,2.40
2023-03-10T01:19:15.212Z,2.50
2023-03-10T01:21:42.642Z,3.70
2023-03-10T01:24:14.539Z,3.73
2023-03-10T01:26:41.558Z,3.10
2023-03-10T01:29:08.688Z,3.00
2023-03-10T01:31:35.953Z,2.43
2023-03-10T01:34:02.983Z,5.80
2023-03-10T01:36:30.108Z,2.73
2023-03-10T01:38:58.261Z,3.20
2023-03-10T01:41:25.499Z,2.60
2023-03-10T01:43:54.739Z,2.67
2023-03-10T01:46:38.744Z,2.20
2023-03-10T01:49:36.643Z,3.73
2023-03-10T01:52:10.365Z,3.10
2023-03-10T01:54:59.892Z,2.20
2023-03-10T01:57:40.917Z,4.90
2023-03-10T02:00:12.549Z,3.37
2023-03-10T02:02:48.057Z,2.57
2023-03-10T02:05:16.042Z,2.03
2023-03-10T02:07:44.432Z,2.83
2023-03-10T02:10:16.422Z,2.93
2023-03-10T02:12:46.673Z,3.30
2023-03-10T02:15:13.907Z,3.47
2023-03-10T02:18:10.312Z,3.40
2023-03-10T02:21:06.778Z,2.60
2023-03-10T02:23:51.362Z,3.67
2023-03-10T02:27:01.122Z,3.07
2023-03-10T02:29:52.556Z,2.33
2023-03-10T02:32:33.202Z,4.07
2023-03-10T02:35:20.124Z,3.67
2023-03-10T02:38:11.462Z,4.30
2023-03-10T02:41:01.588Z,5.00
2023-03-10T02:43:48.611Z,3.47
2023-03-10T02:46:24.866Z,4.93
2023-03-10T02:49:12.544Z,2.83
2023-03-10T02:51:52.023Z,3.73
2023-03-10T02:54:20.198Z,2.90
2023-03-10T02:57:04.887Z,3.80
2023-03-10T02:59:40.720Z,3.13
2023-03-10T03:02:15.262Z,4.70
2023-03-10T03:04:44.068Z,2.63
2023-03-10T03:07:30.842Z,3.83
2023-03-10T03:10:13.490Z,4.63
2023-03-10T03:15:47.355Z,4.80
2023-03-10T03:18:29.380Z,5.87
2023-03-10T03:24:27.211Z,3.80
2023-03-10T03:27:14.243Z,3.23
2023-03-10T03:29:43.897Z,4.40
2023-03-10T03:32:21.234Z,5.63
2023-03-10T03:34:48.497Z,3.93
2023-03-10T03:37:21.558Z,5.80
2023-03-10T03:39:53.406Z,5.20
2023-03-10T03:42:23.661Z,7.10
2023-03-10T03:44:54.397Z,6.57
2023-03-10T03:47:22.956Z,3.77
2023-03-10T03:50:02.825Z,3.80
2023-03-10T03:52:31.364Z,3.20
2023-03-10T03:55:25.134Z,4.10
2023-03-10T03:58:32.400Z,4.33
2023-03-10T04:01:16.947Z,4.03
2023-03-10T04:06:39.430Z,5.10
2023-03-10T04:09:24.953Z,5.00
2023-03-10T04:12:07.927Z,5.93
2023-03-10T04:15:01.289Z,4.27
2023-03-10T04:17:29.670Z,4.77
2023-03-10T04:20:07.151Z,3.40
2023-03-10T04:22:37.646Z,4.57
2023-03-10T04:25:14.949Z,3.53
2023-03-10T04:28:06.136Z,5.30
2023-03-10T04:31:09.730Z,4.53
2023-03-10T04:34:01.944Z,2.90
2023-03-10T04:36:35.752Z,3.57
2023-03-10T04:39:10.191Z,3.17
2023-03-10T04:42:31.721Z,5.73
2023-03-10T04:48:01.405Z,3.87
2023-03-10T04:50:35.952Z,2.53
2023-03-10T04:53:27.105Z,4.20
2023-03-10T04:55:58.477Z,2.93
2023-03-10T04:58:36.237Z,3.03
2023-03-10T05:01:43.429Z,3.03
2023-03-10T05:04:12.170Z,3.07
2023-03-10T05:06:41.059Z,3.53
2023-03-10T05:09:21.926Z,5.63
2023-03-10T05:11:53.278Z,2.50
2023-03-10T05:14:51.549Z,6.07
2023-03-10T05:17:21.461Z,4.30
2023-03-10T05:20:00.275Z,3.53
2023-03-10T05:22:32.553Z,3.60
2023-03-10T05:24:59.987Z,3.23
2023-03-10T05:27:38.000Z,6.47
2023-03-10T05:30:32.453Z,3.27
2023-03-10T05:33:02.039Z,2.60
2023-03-10T05:35:29.004Z,5.07
2023-03-10T05:37:59.362Z,3.07
2023-03-10T05:40:43.743Z,6.10
2023-03-10T05:43:36.034Z,2.67
2023-03-10T05:46:20.059Z,3.57
2023-03-10T05:48:48.132Z,3.17
2023-03-10T05:51:21.558Z,6.90
2023-03-10T05:54:07.661Z,3.17
2023-03-10T05:56:36.406Z,5.70
2023-03-10T05:59:07.279Z,2.43
2023-03-10T06:01:38.358Z,5.17
2023-03-10T06:04:05.816Z,3.67
2023-03-10T06:06:35.627Z,3.40
2023-03-10T06:09:13.220Z,4.10
2023-03-10T06:11:40.407Z,4.50
2023-03-10T06:14:08.941Z,5.83
2023-03-10T06:16:37.588Z,3.83
2023-03-10T06:19:06.104Z,3.33
2023-03-10T06:21:33.158Z,2.73
2023-03-10T06:24:01.597Z,3.70
2023-03-10T06:26:29.607Z,4.80
2023-03-10T06:28:57.923Z,5.70
2023-03-10T06:31:26.638Z,4.23
2023-03-10T06:34:04.296Z,5.20
2023-03-10T06:36:34.925Z,4.07
2023-03-10T06:39:03.827Z,4.83
2023-03-10T06:41:34.873Z,2.97
2023-03-10T06:44:03.722Z,2.50
2023-03-10T06:46:34.373Z,3.50
2023-03-10T06:49:04.709Z,2.83
2023-03-10T06:51:35.850Z,3.77
2023-03-10T06:54:05.626Z,3.23
2023-03-10T06:56:35.725Z,2.77
2023-03-10T06:59:04.328Z,3.93
2023-03-10T07:01:33.990Z,3.77
2023-03-10T07:04:04.262Z,6.50
2023-03-10T07:06:35.432Z,4.27
2023-03-10T07:09:12.840Z,4.33
2023-03-10T07:11:41.465Z,4.50
2023-03-10T07:14:10.774Z,5.10
2023-03-10T07:16:41.032Z,5.17
2023-03-10T07:19:15.785Z,4.83
2023-03-10T07:21:44.300Z,5.00
2023-03-10T07:24:11.438Z,5.97
2023-03-10T07:26:47.468Z,3.93
2023-03-10T07:29:18.688Z,3.90
2023-03-10T07:31:49.704Z,3.27
2023-03-10T07:34:19.660Z,5.47
2023-03-10T07:36:49.283Z,3.60
2023-03-10T07:39:17.534Z,4.80
2023-03-10T07:41:45.867Z,5.10
2023-03-10T07:44:23.515Z,3.97
2023-03-10T07:46:52.544Z,6.40
2023-03-10T07:49:24.300Z,3.10
2023-03-10T07:51:53.383Z,5.33
2023-03-10T07:54:23.044Z,8.83
2023-03-10T07:56:51.217Z,10.13
2023-03-10T07:59:20.461Z,4.53
2023-03-10T08:01:49.089Z,5.67
2023-03-10T08:04:18.644Z,9.07
2023-03-10T08:06:49.185Z,5.33
2023-03-10T08:09:17.596Z,7.13
2023-03-10T08:11:46.102Z,4.27
2023-03-10T08:14:21.118Z,9.47
2023-03-10T08:16:52.001Z,4.27
2023-03-10T08:19:22.432Z,5.80
2023-03-10T08:21:49.719Z,6.27
2023-03-10T08:24:18.531Z,6.53
2023-03-10T08:26:47.733Z,4.57
2023-03-10T08:29:16.184Z,5.13
2023-03-10T08:31:52.799Z,4.93
2023-03-10T08:34:22.132Z,8.83
2023-03-10T08:36:51.767Z,4.87
2023-03-10T08:39:20.305Z,5.40
2023-03-10T08:41:49.953Z,3.97
2023-03-10T08:44:19.827Z,6.57
2023-03-10T08:46:49.818Z,4.43
2023-03-10T08:49:21.374Z,5.63
2023-03-10T08:51:51.361Z,5.63
2023-03-10T08:54:21.840Z,7.65
2023-03-10T08:56:50.762Z,4.50
2023-03-10T08:59:19.718Z,5.55
2023-03-10T09:01:48.369Z,5.68
2023-03-10T09:04:16.511Z,5.90
2023-03-10T09:06:45.323Z,7.13
2023-03-10T09:09:15.116Z,6.88
2023-03-10T09:11:44.676Z,5.38
2023-03-10T09:14:19.303Z,7.38
2023-03-10T09:16:48.768Z,5.78
2023-03-10T09:19:20.876Z,5.45
2023-03-10T09:21:51.082Z,4.57
2023-03-10T09:24:21.764Z,5.43
2023-03-10T09:26:59.915Z,3.28
2023-03-10T09:29:43.402Z,4.70
2023-03-10T09:32:13.368Z,6.88
2023-03-10T09:34:42.951Z,6.80
2023-03-10T09:37:11.631Z,4.95
2023-03-10T09:39:38.864Z,5.40
2023-03-10T09:42:41.856Z,4.80
2023-03-10T09:45:47.469Z,4.53
2023-03-10T09:48:57.978Z,4.27
2023-03-10T09:51:36.422Z,5.17
2023-03-10T09:54:42.021Z,5.47
2023-03-10T09:57:29.452Z,4.53
2023-03-10T10:00:18.367Z,3.27
2023-03-10T10:02:51.558Z,6.53
2023-03-10T10:05:34.262Z,6.30
2023-03-10T10:08:12.080Z,7.87
2023-03-10T10:10:54.530Z,6.07
2023-03-10T10:13:26.186Z,2.53
2023-03-10T10:16:34.610Z,3.53
2023-03-10T10:19:29.370Z,4.00
2023-03-10T10:22:31.735Z,4.37
2023-03-10T10:25:15.032Z,4.70
2023-03-10T10:27:45.882Z,5.10
2023-03-10T10:30:41.499Z,5.83
2023-03-10T10:33:14.086Z,4.33
2023-03-10T10:35:49.635Z,5.83
2023-03-10T10:38:30.751Z,5.83
2023-03-10T10:41:24.039Z,5.10
2023-03-10T10:43:56.120Z,4.40
2023-03-10T10:46:30.149Z,6.57
2023-03-10T10:49:28.981Z,6.30
2023-03-10T10:52:06.440Z,4.85
2023-03-10T10:54:46.477Z,5.00
2023-03-10T10:57:36.162Z,3.90
2023-03-10T11:00:28.448Z,3.40
2023-03-10T11:03:04.228Z,5.07
2023-03-10T11:05:38.073Z,5.43
2023-03-10T11:08:54.208Z,5.80
2023-03-10T11:11:34.523Z,4.78
2023-03-10T11:14:20.565Z,4.75
2023-03-10T11:17:24.404Z,4.38
2023-03-10T11:20:12.605Z,4.82
2023-03-10T11:23:28.664Z,4.20
2023-03-10T11:26:20.139Z,5.47
2023-03-10T11:29:23.090Z,7.65
2023-03-10T11:32:19.453Z,5.80
2023-03-10T11:34:58.579Z,5.72
2023-03-10T11:37:47.444Z,4.50
2023-03-10T11:40:24.498Z,4.55
2023-03-10T11:43:15.006Z,4.30
2023-03-10T11:45:53.120Z,5.93
2023-03-10T11:48:46.989Z,4.22
2023-03-10T11:51:32.848Z,3.53
2023-03-10T11:54:13.779Z,4.35
2023-03-10T11:56:44.250Z,3.95
2023-03-10T11:59:29.686Z,4.15
2023-03-10T12:02:07.812Z,3.78
2023-03-10T12:05:05.336Z,3.90
2023-03-10T12:07:44.095Z,2.63
2023-03-10T12:10:16.045Z,5.22
2023-03-10T12:12:49.067Z,5.43
2023-03-10T12:15:34.283Z,2.85
2023-03-10T12:18:07.046Z,2.10
2023-03-10T12:20:36.088Z,4.22
2023-03-10T12:23:28.408Z,3.10
2023-03-10T12:25:57.080Z,3.70
2023-03-10T12:28:27.836Z,3.33
2023-03-10T12:31:33.415Z,3.90
2023-03-10T12:34:33.065Z,2.92
2023-03-10T12:37:13.174Z,4.13
2023-03-10T12:39:47.997Z,3.70
2023-03-10T12:42:35.627Z,3.08
2023-03-10T12:45:36.529Z,6.05
2023-03-10T12:48:14.284Z,3.78
2023-03-10T12:51:15.420Z,3.55
2023-03-10T12:54:39.532Z,5.18
2023-03-10T12:57:34.559Z,4.50
2023-03-10T13:00:23.023Z,4.90
2023-03-10T13:03:21.951Z,3.30
2023-03-10T13:06:31.331Z,4.60
2023-03-10T13:09:15.296Z,3.20
2023-03-10T13:11:55.304Z,5.13
2023-03-10T13:14:33.237Z,5.20
2023-03-10T13:17:02.851Z,5.82
2023-03-10T13:19:41.243Z,4.07
2023-03-10T13:22:17.701Z,5.20
2023-03-10T13:25:03.156Z,6.90
2023-03-10T13:27:38.308Z,2.97
2023-03-10T13:30:22.484Z,4.72
2023-03-10T13:33:05.594Z,6.00
2023-03-10T13:35:40.336Z,6.68
2023-03-10T13:38:29.880Z,3.08
2023-03-10T13:41:03.055Z,8.30
2023-03-10T13:43:45.900Z,7.38
2023-03-10T13:46:32.676Z,4.18
2023-03-10T13:49:10.494Z,5.10
2023-03-10T13:51:41.500Z,3.33
2023-03-10T13:54:25.317Z,2.85
2023-03-10T13:56:57.826Z,6.57
2023-03-10T13:59:38.977Z,5.18
2023-03-10T14:02:19.656Z,6.18
2023-03-10T14:04:59.179Z,2.83
2023-03-10T14:07:38.378Z,5.15
2023-03-10T14:10:10.629Z,4.93
2023-03-10T14:12:57.980Z,2.90
2023-03-10T14:15:41.907Z,3.30
2023-03-10T14:18:18.836Z,4.38
2023-03-10T14:20:48.094Z,3.83
2023-03-10T14:23:34.549Z,5.07
2023-03-10T14:26:16.367Z,3.28
2023-03-10T14:28:43.654Z,4.40
2023-03-10T14:31:26.186Z,3.55
2023-03-10T14:33:56.294Z,6.13
2023-03-10T14:36:26.114Z,4.45
2023-03-10T14:38:54.495Z,3.35
2023-03-10T14:41:26.382Z,5.43
2023-03-10T14:43:56.919Z,2.70
2023-03-10T14:46:24.994Z,3.45
2023-03-10T14:49:01.727Z,4.07
2023-03-10T14:51:40.925Z,5.30
2023-03-10T14:54:30.828Z,2.42
2023-03-10T14:57:09.474Z,4.80
2023-03-10T14:59:39.797Z,4.38
2023-03-10T15:02:40.464Z,3.80
2023-03-10T15:05:14.642Z,3.73
2023-03-10T15:07:44.680Z,6.00
2023-03-10T15:10:19.496Z,5.37
2023-03-10T15:12:49.956Z,3.73
2023-03-10T15:15:25.405Z,4.77
2023-03-10T15:17:56.039Z,6.10
2023-03-10T15:20:25.643Z,3.03
2023-03-10T15:22:52.998Z,2.63
2023-03-10T15:25:25.659Z,4.30
2023-03-10T15:27:53.327Z,2.57
2023-03-10T15:30:29.426Z,2.63
2023-03-10T15:32:57.240Z,3.83
2023-03-10T15:35:27.371Z,3.10
2023-03-10T15:38:01.387Z,4.40
2023-03-10T15:40:41.330Z,3.97
2023-03-10T15:43:12.172Z,3.10
2023-03-10T15:45:42.754Z,2.97
2023-03-10T15:48:12.335Z,3.27
2023-03-10T15:50:47.954Z,2.30
2023-03-10T15:53:17.014Z,3.20
2023-03-10T15:55:45.712Z,2.57
2023-03-10T15:58:14.954Z,2.70
2023-03-10T16:00:44.818Z,2.90
2023-03-10T16:03:18.145Z,2.97
2023-03-10T16:05:48.636Z,2.87
2023-03-10T16:08:22.026Z,2.50
2023-03-10T16:11:01.951Z,5.67
2023-03-10T16:13:32.091Z,2.77
2023-03-10T16:16:05.932Z,2.63
2023-03-10T16:18:33.918Z,3.20
2023-03-10T16:21:12.699Z,4.13
2023-03-10T16:23:41.158Z,3.87
2023-03-10T16:26:20.011Z,3.37
2023-03-10T16:29:04.527Z,2.57
2023-03-10T16:31:33.163Z,4.17
2023-03-10T16:34:00.371Z,2.90
2023-03-10T16:36:32.692Z,2.93
2023-03-10T16:39:00.107Z,3.73
2023-03-10T16:41:29.877Z,4.40
2023-03-10T16:43:59.838Z,4.33
2023-03-10T16:46:31.152Z,3.63
2023-03-10T16:49:06.166Z,5.27
2023-03-10T16:51:41.187Z,4.47
2023-03-10T16:54:12.542Z,5.20
2023-03-10T16:56:43.647Z,4.20
2023-03-10T16:59:24.990Z,4.17
2023-03-10T17:01:53.182Z,4.27
2023-03-10T17:04:21.592Z,4.30
2023-03-10T17:06:50.884Z,3.73
2023-03-10T17:09:19.337Z,7.97
2023-03-10T17:11:54.961Z,5.27
2023-03-10T17:14:27.442Z,3.97
2023-03-10T17:16:56.457Z,6.53
2023-03-10T17:19:32.635Z,4.33
2023-03-10T17:24:44.706Z,4.40
2023-03-10T17:27:14.159Z,4.07
2023-03-10T17:29:44.005Z,3.67
2023-03-10T17:32:12.366Z,4.90
2023-03-10T17:34:45.888Z,5.37
2023-03-10T17:37:16.344Z,6.10
2023-03-10T17:39:46.528Z,3.90
2023-03-10T17:42:15.845Z,4.03
2023-03-10T17:44:46.866Z,4.20
2023-03-10T17:47:15.334Z,4.80
2023-03-10T17:49:46.272Z,5.93
2023-03-10T17:52:31.411Z,6.27
2023-03-10T17:55:01.837Z,5.20
2023-03-10T17:57:29.987Z,6.03
2023-03-10T17:59:59.371Z,6.77
2023-03-10T18:02:28.008Z,5.27
2023-03-10T18:04:58.023Z,6.60
2023-03-10T18:07:28.649Z,4.60
2023-03-10T18:10:06.937Z,5.23
2023-03-10T18:12:35.289Z,4.70
2023-03-10T18:15:07.023Z,5.40
2023-03-10T18:17:34.158Z,5.03
2023-03-10T18:20:08.821Z,5.50
2023-03-10T18:22:38.966Z,5.10
2023-03-10T18:25:07.804Z,5.57
2023-03-10T18:27:37.676Z,4.23
2023-03-10T18:30:08.298Z,5.70
2023-03-10T18:32:36.943Z,3.93
2023-03-10T18:35:06.313Z,7.07
2023-03-10T18:37:35.949Z,6.67
2023-03-10T18:40:10.271Z,7.43
2023-03-10T18:42:39.665Z,6.47
2023-03-10T18:45:19.552Z,13.33
2023-03-10T18:47:47.918Z,12.93
2023-03-10T18:50:16.716Z,5.90
2023-03-10T18:52:47.480Z,6.93
2023-03-10T18:55:15.771Z,7.17
2023-03-10T18:57:45.007Z,6.50
2023-03-10T19:00:16.056Z,7.93
2023-03-10T19:02:45.019Z,6.70
2023-03-10T19:05:17.862Z,5.33
2023-03-10T19:07:48.155Z,6.20
2023-03-10T19:10:18.845Z,6.60
2023-03-10T19:12:47.125Z,6.70
2023-03-10T19:15:24.701Z,6.57
2023-03-10T19:17:55.010Z,6.23
2023-03-10T19:20:34.095Z,4.63
2023-03-10T19:23:03.243Z,6.53
2023-03-10T19:25:31.640Z,5.50
2023-03-10T19:27:58.834Z,5.40
2023-03-10T19:30:29.401Z,4.00
2023-03-10T19:32:57.201Z,6.40
2023-03-10T19:35:26.719Z,8.77
2023-03-10T19:37:56.417Z,5.60
2023-03-10T19:40:27.176Z,6.23
2023-03-10T19:42:57.979Z,5.20
2023-03-10T19:45:29.134Z,5.53
2023-03-10T19:47:59.766Z,6.20
2023-03-10T19:50:33.750Z,6.07
2023-03-10T19:53:03.494Z,7.40
2023-03-10T19:55:32.798Z,6.77
2023-03-10T19:58:09.597Z,7.97
2023-03-10T20:00:37.999Z,6.10
2023-03-10T20:03:08.042Z,10.80
2023-03-10T20:05:41.415Z,10.53
2023-03-10T20:08:11.528Z,8.80
2023-03-10T20:10:40.180Z,5.80
2023-03-10T20:13:09.000Z,6.00
2023-03-10T20:15:41.004Z,7.47
2023-03-10T20:18:11.922Z,4.87
2023-03-10T20:20:43.896Z,4.73
2023-03-10T20:23:11.150Z,7.63
2023-03-10T20:25:39.617Z,8.90
2023-03-10T20:28:16.020Z,7.63
2023-03-10T20:30:48.889Z,7.20
2023-03-10T20:33:20.440Z,6.80
2023-03-10T20:35:56.196Z,5.47
2023-03-10T20:38:23.480Z,6.30
2023-03-10T20:40:53.554Z,6.30
2023-03-10T20:43:22.477Z,5.97
2023-03-10T20:46:01.741Z,5.20
2023-03-10T20:48:30.480Z,5.70
2023-03-10T20:51:07.063Z,9.90
2023-03-10T20:53:44.479Z,7.37
2023-03-10T20:56:15.793Z,8.90
2023-03-10T20:58:52.657Z,8.33
2023-03-10T21:01:22.060Z,8.67
2023-03-10T21:03:57.226Z,9.50
2023-03-10T21:06:28.677Z,7.80
2023-03-10T21:09:06.457Z,11.70
2023-03-10T21:11:36.332Z,12.73
2023-03-10T21:14:03.317Z,14.50
2023-03-10T21:16:42.009Z,14.10
2023-03-10T21:19:10.502Z,14.47
2023-03-10T21:21:47.437Z,15.17
2023-03-10T21:24:17.871Z,14.40
2023-03-10T21:26:46.724Z,12.93
2023-03-10T21:29:13.729Z,15.60
2023-03-10T21:31:42.017Z,14.73
2023-03-10T21:34:10.260Z,12.30
2023-03-10T21:36:39.121Z,12.40
2023-03-10T21:39:16.465Z,9.30
2023-03-10T21:41:52.465Z,12.30
2023-03-10T21:44:22.760Z,9.87
2023-03-10T21:46:51.436Z,14.83
2023-03-10T21:49:22.000Z,10.23
2023-03-10T21:51:59.566Z,12.47
2023-03-10T21:54:32.170Z,12.07
2023-03-10T21:57:02.884Z,12.13
2023-03-10T21:59:33.122Z,10.07
2023-03-10T22:02:02.552Z,12.23
2023-03-10T22:04:31.061Z,14.27
2023-03-10T22:06:58.362Z,13.40
2023-03-10T22:09:27.405Z,12.37
2023-03-10T22:11:55.784Z,11.27
2023-03-10T22:14:26.086Z,9.57
2023-03-10T22:16:54.159Z,8.90
2023-03-10T22:19:24.604Z,8.10
2023-03-10T22:22:00.804Z,11.10
2023-03-10T22:24:29.599Z,10.73
2023-03-10T22:26:59.421Z,11.27
2023-03-10T22:29:27.649Z,12.80
2023-03-10T22:31:56.582Z,9.27
2023-03-10T22:34:26.459Z,9.77
2023-03-10T22:36:56.319Z,13.30
2023-03-10T22:39:25.166Z,8.73
2023-03-10T22:41:53.704Z,10.13
2023-03-10T22:44:24.335Z,11.27
2023-03-10T22:46:55.070Z,11.07
2023-03-10T22:49:32.746Z,9.40
2023-03-10T22:51:59.744Z,13.17
2023-03-10T22:54:37.869Z,15.00
2023-03-10T22:57:06.302Z,13.00
2023-03-10T22:59:34.925Z,8.73
2023-03-10T23:02:05.037Z,8.10
2023-03-10T23:04:35.620Z,8.17
2023-03-10T23:07:02.862Z,6.27
2023-03-10T23:09:39.785Z,6.90
2023-03-10T23:12:10.424Z,7.07
2023-03-10T23:14:47.583Z,6.60
2023-03-10T23:17:18.663Z,7.73
2023-03-10T23:19:51.306Z,6.57
2023-03-10T23:22:20.227Z,10.30
2023-03-10T23:24:47.666Z,11.80
2023-03-10T23:27:16.812Z,11.73
2023-03-10T23:29:48.814Z,11.10
2023-03-10T23:32:17.430Z,8.50
2023-03-10T23:34:48.564Z,10.27
2023-03-10T23:37:16.566Z,8.10
2023-03-10T23:39:44.932Z,8.17
2023-03-10T23:42:14.879Z,6.30
2023-03-10T23:44:43.521Z,7.93
2023-03-10T23:47:12.181Z,6.70
2023-03-10T23:49:40.548Z,5.70
2023-03-10T23:52:10.380Z,8.17
2023-03-10T23:54:39.360Z,6.17
2023-03-10T23:57:09.470Z,8.37
2023-03-10T23:59:47.661Z,8.23
